sensor_id;sensor_type;location;lat;lon;timestamp;temperature;humidity
29891;DHT22;16759;49.540;8.642;2022-11-20T00:00:10;4.20;99.90
29891;DHT22;16759;49.540;8.642;2022-11-20T00:02:35;4.20;99.90
29891;DHT22;16759;49.540;8.642;2022-11-20T00:05:01;4.20;99.90
29891;DHT22;16759;49.540;8.642;2022-11-20T00:07:26;4.20;99.90
29891;DHT22;16759;49.540;8.642;2022-11-20T00:09:54;4.30;99.90
29891;DHT22;16759;49.540;8.642;2022-11-20T00:12:19;4.10;99.90
29891;DHT22;16759;49.540;8.642;2022-11-20T00:14:45;4.10;99.90
29891;DHT22;16759;49.540;8.642;2022-11-20T00:17:10;4.00;99.90
29891;DHT22;16759;49.540;8.642;2022-11-20T00:19:36;4.10;99.90
29891;DHT22;16759;49.540;8.642;2022-11-20T00:22:04;3.90;99.90
29891;DHT22;16759;49.540;8.642;2022-11-20T00:24:29;4.00;99.90
29891;DHT22;16759;49.540;8.642;2022-11-20T00:26:57;3.90;99.90
29891;DHT22;16759;49.540;8.642;2022-11-20T00:29:22;4.00;99.90
29891;DHT22;16759;49.540;8.642;2022-11-20T00:31:48;4.10;99.90
29891;DHT22;16759;49.540;8.642;2022-11-20T00:34:16;4.00;99.90
29891;DHT22;16759;49.540;8.642;2022-11-20T00:36:41;4.40;99.90
29891;DHT22;16759;49.540;8.642;2022-11-20T00:39:06;4.00;99.90
29891;DHT22;16759;49.540;8.642;2022-11-20T00:41:32;4.00;99.90
29891;DHT22;16759;49.540;8.642;2022-11-20T00:43:57;4.20;99.90
29891;DHT22;16759;49.540;8.642;2022-11-20T00:46:24;4.30;99.90
29891;DHT22;16759;49.540;8.642;2022-11-20T00:48:50;4.20;99.90
29891;DHT22;16759;49.540;8.642;2022-11-20T00:51:16;4.10;99.90
29891;DHT22;16759;49.540;8.642;2022-11-20T00:53:45;4.40;99.90
29891;DHT22;16759;49.540;8.642;2022-11-20T00:56:12;4.10;99.90
29891;DHT22;16759;49.540;8.642;2022-11-20T00:58:38;4.40;99.90
29891;DHT22;16759;49.540;8.642;2022-11-20T01:01:11;4.30;99.90
29891;DHT22;16759;49.540;8.642;2022-11-20T01:03:38;4.30;99.90
29891;DHT22;16759;49.540;8.642;2022-11-20T01:06:05;4.20;99.90
29891;DHT22;16759;49.540;8.642;2022-11-20T01:08:31;4.10;99.90
29891;DHT22;16759;49.540;8.642;2022-11-20T01:11:01;4.00;99.90
29891;DHT22;16759;49.540;8.642;2022-11-20T01:13:27;3.90;99.90
29891;DHT22;16759;49.540;8.642;2022-11-20T01:16:03;4.10;99.90
29891;DHT22;16759;49.540;8.642;2022-11-20T01:18:29;4.00;99.90
29891;DHT22;16759;49.540;8.642;2022-11-20T01:20:56;4.10;99.90
29891;DHT22;16759;49.540;8.642;2022-11-20T01:23:24;4.10;99.90
29891;DHT22;16759;49.540;8.642;2022-11-20T01:25:50;4.10;99.90
29891;DHT22;16759;49.540;8.642;2022-11-20T01:28:15;4.10;99.90
29891;DHT22;16759;49.540;8.642;2022-11-20T01:30:41;4.10;99.90
29891;DHT22;16759;49.540;8.642;2022-11-20T01:33:06;4.10;99.90
29891;DHT22;16759;49.540;8.642;2022-11-20T01:35:31;4.20;99.90
29891;DHT22;16759;49.540;8.642;2022-11-20T01:37:57;4.10;99.90
29891;DHT22;16759;49.540;8.642;2022-11-20T01:40:22;4.30;99.90
29891;DHT22;16759;49.540;8.642;2022-11-20T01:42:53;4.20;99.90
29891;DHT22;16759;49.540;8.642;2022-11-20T01:48:14;4.00;99.90
29891;DHT22;16759;49.540;8.642;2022-11-20T01:50:40;4.10;99.90
29891;DHT22;16759;49.540;8.642;2022-11-20T01:53:07;4.40;99.90
29891;DHT22;16759;49.540;8.642;2022-11-20T01:55:37;4.40;99.90
29891;DHT22;16759;49.540;8.642;2022-11-20T01:58:03;4.00;99.90
29891;DHT22;16759;49.540;8.642;2022-11-20T02:00:29;4.10;99.90
29891;DHT22;16759;49.540;8.642;2022-11-20T02:02:58;4.20;99.90
29891;DHT22;16759;49.540;8.642;2022-11-20T02:05:32;4.30;99.90
29891;DHT22;16759;49.540;8.642;2022-11-20T02:07:59;4.30;99.90
29891;DHT22;16759;49.540;8.642;2022-11-20T02:10:25;4.20;99.90
29891;DHT22;16759;49.540;8.642;2022-11-20T02:12:51;4.30;99.90
29891;DHT22;16759;49.540;8.642;2022-11-20T02:15:35;4.20;99.90
29891;DHT22;16759;49.540;8.642;2022-11-20T02:18:01;4.30;99.90
29891;DHT22;16759;49.540;8.642;2022-11-20T02:20:27;4.30;99.90
29891;DHT22;16759;49.540;8.642;2022-11-20T02:23:03;4.30;99.90
29891;DHT22;16759;49.540;8.642;2022-11-20T02:25:30;4.50;99.90
29891;DHT22;16759;49.540;8.642;2022-11-20T02:27:57;4.50;99.90
29891;DHT22;16759;49.540;8.642;2022-11-20T02:30:23;4.50;99.90
29891;DHT22;16759;49.540;8.642;2022-11-20T02:32:48;4.50;99.90
29891;DHT22;16759;49.540;8.642;2022-11-20T02:37:48;4.40;99.90
29891;DHT22;16759;49.540;8.642;2022-11-20T02:40:17;4.20;99.90
29891;DHT22;16759;49.540;8.642;2022-11-20T02:42:42;4.60;99.90
29891;DHT22;16759;49.540;8.642;2022-11-20T02:45:08;4.50;99.90
29891;DHT22;16759;49.540;8.642;2022-11-20T02:47:33;4.40;99.90
29891;DHT22;16759;49.540;8.642;2022-11-20T02:49:59;4.40;99.90
29891;DHT22;16759;49.540;8.642;2022-11-20T02:52:25;4.40;99.90
29891;DHT22;16759;49.540;8.642;2022-11-20T02:54:51;4.50;99.90
29891;DHT22;16759;49.540;8.642;2022-11-20T02:57:16;4.60;99.90
29891;DHT22;16759;49.540;8.642;2022-11-20T02:59:41;4.40;99.90
29891;DHT22;16759;49.540;8.642;2022-11-20T03:02:07;4.20;99.90
29891;DHT22;16759;49.540;8.642;2022-11-20T03:04:32;4.30;99.90
29891;DHT22;16759;49.540;8.642;2022-11-20T03:06:58;4.20;99.90
29891;DHT22;16759;49.540;8.642;2022-11-20T03:09:23;4.50;99.90
29891;DHT22;16759;49.540;8.642;2022-11-20T03:11:49;4.30;99.90
29891;DHT22;16759;49.540;8.642;2022-11-20T03:14:17;4.50;99.90
29891;DHT22;16759;49.540;8.642;2022-11-20T03:16:42;4.50;99.90
29891;DHT22;16759;49.540;8.642;2022-11-20T03:19:07;4.50;99.90
29891;DHT22;16759;49.540;8.642;2022-11-20T03:21:33;4.50;99.90
29891;DHT22;16759;49.540;8.642;2022-11-20T03:24:01;4.40;99.90
29891;DHT22;16759;49.540;8.642;2022-11-20T03:26:27;4.50;99.90
29891;DHT22;16759;49.540;8.642;2022-11-20T03:28:53;4.50;99.90
29891;DHT22;16759;49.540;8.642;2022-11-20T03:31:26;4.20;99.90
29891;DHT22;16759;49.540;8.642;2022-11-20T03:33:52;4.50;99.90
29891;DHT22;16759;49.540;8.642;2022-11-20T03:36:18;4.50;99.90
29891;DHT22;16759;49.540;8.642;2022-11-20T03:38:43;4.50;99.90
29891;DHT22;16759;49.540;8.642;2022-11-20T03:41:10;4.50;99.90
29891;DHT22;16759;49.540;8.642;2022-11-20T03:43:41;4.50;99.90
29891;DHT22;16759;49.540;8.642;2022-11-20T03:46:07;4.60;99.90
29891;DHT22;16759;49.540;8.642;2022-11-20T03:48:34;4.50;99.90
29891;DHT22;16759;49.540;8.642;2022-11-20T03:51:14;4.50;99.90
29891;DHT22;16759;49.540;8.642;2022-11-20T03:53:43;4.60;99.90
29891;DHT22;16759;49.540;8.642;2022-11-20T03:56:09;4.50;99.90
29891;DHT22;16759;49.540;8.642;2022-11-20T03:58:35;4.40;99.90
29891;DHT22;16759;49.540;8.642;2022-11-20T04:01:13;4.50;99.90
29891;DHT22;16759;49.540;8.642;2022-11-20T04:03:40;4.50;99.90
29891;DHT22;16759;49.540;8.642;2022-11-20T04:06:13;4.60;99.90
29891;DHT22;16759;49.540;8.642;2022-11-20T04:08:39;4.50;99.90
29891;DHT22;16759;49.540;8.642;2022-11-20T04:11:21;4.40;99.90
29891;DHT22;16759;49.540;8.642;2022-11-20T04:13:50;4.50;99.90
29891;DHT22;16759;49.540;8.642;2022-11-20T04:16:17;4.50;99.90
29891;DHT22;16759;49.540;8.642;2022-11-20T04:18:42;4.30;99.90
29891;DHT22;16759;49.540;8.642;2022-11-20T04:21:08;4.10;99.90
29891;DHT22;16759;49.540;8.642;2022-11-20T04:23:34;4.60;99.90
29891;DHT22;16759;49.540;8.642;2022-11-20T04:26:06;4.60;99.90
29891;DHT22;16759;49.540;8.642;2022-11-20T04:28:35;4.40;99.90
29891;DHT22;16759;49.540;8.642;2022-11-20T04:31:05;4.60;99.90
29891;DHT22;16759;49.540;8.642;2022-11-20T04:33:34;4.40;99.90
29891;DHT22;16759;49.540;8.642;2022-11-20T04:36:03;4.30;99.90
29891;DHT22;16759;49.540;8.642;2022-11-20T04:38:29;4.40;99.90
29891;DHT22;16759;49.540;8.642;2022-11-20T04:41:01;4.50;99.90
29891;DHT22;16759;49.540;8.642;2022-11-20T04:43:27;4.60;99.90
29891;DHT22;16759;49.540;8.642;2022-11-20T04:45:53;4.60;99.90
29891;DHT22;16759;49.540;8.642;2022-11-20T04:48:19;4.70;99.90
29891;DHT22;16759;49.540;8.642;2022-11-20T04:50:44;4.50;99.90
29891;DHT22;16759;49.540;8.642;2022-11-20T04:53:10;4.50;99.90
29891;DHT22;16759;49.540;8.642;2022-11-20T04:55:35;4.50;99.90
29891;DHT22;16759;49.540;8.642;2022-11-20T04:58:01;4.70;99.90
29891;DHT22;16759;49.540;8.642;2022-11-20T05:00:26;4.70;99.90
29891;DHT22;16759;49.540;8.642;2022-11-20T05:02:54;4.70;99.90
29891;DHT22;16759;49.540;8.642;2022-11-20T05:05:19;4.50;99.90
29891;DHT22;16759;49.540;8.642;2022-11-20T05:07:45;4.40;99.90
29891;DHT22;16759;49.540;8.642;2022-11-20T05:10:10;4.60;99.90
29891;DHT22;16759;49.540;8.642;2022-11-20T05:12:35;4.50;99.90
29891;DHT22;16759;49.540;8.642;2022-11-20T05:15:01;4.70;99.90
29891;DHT22;16759;49.540;8.642;2022-11-20T05:17:29;4.60;99.90
29891;DHT22;16759;49.540;8.642;2022-11-20T05:19:56;4.70;99.90
29891;DHT22;16759;49.540;8.642;2022-11-20T05:22:22;4.80;99.90
29891;DHT22;16759;49.540;8.642;2022-11-20T05:24:48;4.60;99.90
29891;DHT22;16759;49.540;8.642;2022-11-20T05:27:13;4.50;99.90
29891;DHT22;16759;49.540;8.642;2022-11-20T05:29:38;4.70;99.90
29891;DHT22;16759;49.540;8.642;2022-11-20T05:32:04;4.70;99.90
29891;DHT22;16759;49.540;8.642;2022-11-20T05:34:31;4.70;99.90
29891;DHT22;16759;49.540;8.642;2022-11-20T05:36:56;4.70;99.90
29891;DHT22;16759;49.540;8.642;2022-11-20T05:39:22;4.60;99.90
29891;DHT22;16759;49.540;8.642;2022-11-20T05:41:47;4.80;99.90
29891;DHT22;16759;49.540;8.642;2022-11-20T05:44:33;4.90;99.90
29891;DHT22;16759;49.540;8.642;2022-11-20T05:46:58;4.70;99.90
29891;DHT22;16759;49.540;8.642;2022-11-20T05:49:24;5.00;99.90
29891;DHT22;16759;49.540;8.642;2022-11-20T05:51:49;4.80;99.90
29891;DHT22;16759;49.540;8.642;2022-11-20T05:54:15;4.70;99.90
29891;DHT22;16759;49.540;8.642;2022-11-20T05:56:40;5.00;99.90
29891;DHT22;16759;49.540;8.642;2022-11-20T05:59:06;5.00;99.90
29891;DHT22;16759;49.540;8.642;2022-11-20T06:01:33;5.00;99.90
29891;DHT22;16759;49.540;8.642;2022-11-20T06:04:01;4.70;99.90
29891;DHT22;16759;49.540;8.642;2022-11-20T06:06:27;5.10;99.90
29891;DHT22;16759;49.540;8.642;2022-11-20T06:08:52;5.00;99.90
29891;DHT22;16759;49.540;8.642;2022-11-20T06:11:18;4.80;99.90
29891;DHT22;16759;49.540;8.642;2022-11-20T06:13:44;4.90;99.90
29891;DHT22;16759;49.540;8.642;2022-11-20T06:16:10;5.10;99.90
29891;DHT22;16759;49.540;8.642;2022-11-20T06:18:35;5.00;99.90
29891;DHT22;16759;49.540;8.642;2022-11-20T06:21:02;4.70;99.90
29891;DHT22;16759;49.540;8.642;2022-11-20T06:23:29;4.90;99.90
29891;DHT22;16759;49.540;8.642;2022-11-20T06:25:54;5.20;99.90
29891;DHT22;16759;49.540;8.642;2022-11-20T06:28:20;5.30;99.90
29891;DHT22;16759;49.540;8.642;2022-11-20T06:30:48;5.00;99.90
29891;DHT22;16759;49.540;8.642;2022-11-20T06:33:13;5.00;99.90
29891;DHT22;16759;49.540;8.642;2022-11-20T06:35:41;5.00;99.90
29891;DHT22;16759;49.540;8.642;2022-11-20T06:38:07;5.00;99.90
29891;DHT22;16759;49.540;8.642;2022-11-20T06:40:32;5.00;99.90
29891;DHT22;16759;49.540;8.642;2022-11-20T06:42:58;5.00;99.90
29891;DHT22;16759;49.540;8.642;2022-11-20T06:45:23;5.00;99.90
29891;DHT22;16759;49.540;8.642;2022-11-20T06:47:48;5.00;99.90
29891;DHT22;16759;49.540;8.642;2022-11-20T06:50:18;5.00;99.90
29891;DHT22;16759;49.540;8.642;2022-11-20T06:52:44;4.90;99.90
29891;DHT22;16759;49.540;8.642;2022-11-20T06:55:09;5.10;99.90
29891;DHT22;16759;49.540;8.642;2022-11-20T06:57:35;5.30;99.90
29891;DHT22;16759;49.540;8.642;2022-11-20T07:00:00;5.10;99.90
29891;DHT22;16759;49.540;8.642;2022-11-20T07:02:28;5.00;99.90
29891;DHT22;16759;49.540;8.642;2022-11-20T07:04:56;5.00;99.90
29891;DHT22;16759;49.540;8.642;2022-11-20T07:07:21;5.00;99.90
29891;DHT22;16759;49.540;8.642;2022-11-20T07:09:49;5.00;99.90
29891;DHT22;16759;49.540;8.642;2022-11-20T07:12:14;4.90;99.90
29891;DHT22;16759;49.540;8.642;2022-11-20T07:14:40;4.90;99.90
29891;DHT22;16759;49.540;8.642;2022-11-20T07:17:05;4.70;99.90
29891;DHT22;16759;49.540;8.642;2022-11-20T07:19:31;5.00;99.90
29891;DHT22;16759;49.540;8.642;2022-11-20T07:21:56;5.00;99.90
29891;DHT22;16759;49.540;8.642;2022-11-20T07:24:22;5.20;99.90
29891;DHT22;16759;49.540;8.642;2022-11-20T07:26:47;5.00;99.90
29891;DHT22;16759;49.540;8.642;2022-11-20T07:29:16;5.20;99.90
29891;DHT22;16759;49.540;8.642;2022-11-20T07:31:41;5.40;99.90
29891;DHT22;16759;49.540;8.642;2022-11-20T07:34:07;5.40;99.90
29891;DHT22;16759;49.540;8.642;2022-11-20T07:36:32;5.20;99.90
29891;DHT22;16759;49.540;8.642;2022-11-20T07:38:58;5.40;99.90
29891;DHT22;16759;49.540;8.642;2022-11-20T07:41:23;5.20;99.90
29891;DHT22;16759;49.540;8.642;2022-11-20T07:43:49;5.40;99.90
29891;DHT22;16759;49.540;8.642;2022-11-20T07:46:16;5.40;99.90
29891;DHT22;16759;49.540;8.642;2022-11-20T07:48:42;5.40;99.90
29891;DHT22;16759;49.540;8.642;2022-11-20T07:51:07;5.50;99.90
29891;DHT22;16759;49.540;8.642;2022-11-20T07:53:33;5.60;99.90
29891;DHT22;16759;49.540;8.642;2022-11-20T07:56:02;5.60;99.90
29891;DHT22;16759;49.540;8.642;2022-11-20T07:58:31;5.40;99.90
29891;DHT22;16759;49.540;8.642;2022-11-20T08:01:03;5.40;99.90
29891;DHT22;16759;49.540;8.642;2022-11-20T08:03:29;5.30;99.90
29891;DHT22;16759;49.540;8.642;2022-11-20T08:05:57;5.70;99.90
29891;DHT22;16759;49.540;8.642;2022-11-20T08:08:23;5.60;99.90
29891;DHT22;16759;49.540;8.642;2022-11-20T08:10:48;5.70;99.90
29891;DHT22;16759;49.540;8.642;2022-11-20T08:13:14;5.70;99.90
29891;DHT22;16759;49.540;8.642;2022-11-20T08:16:12;5.60;99.90
29891;DHT22;16759;49.540;8.642;2022-11-20T08:18:37;5.80;99.90
29891;DHT22;16759;49.540;8.642;2022-11-20T08:21:03;5.70;99.90
29891;DHT22;16759;49.540;8.642;2022-11-20T08:23:29;5.90;99.90
29891;DHT22;16759;49.540;8.642;2022-11-20T08:25:54;5.90;99.90
29891;DHT22;16759;49.540;8.642;2022-11-20T08:28:20;5.90;99.90
29891;DHT22;16759;49.540;8.642;2022-11-20T08:30:45;5.70;99.90
29891;DHT22;16759;49.540;8.642;2022-11-20T08:33:11;5.80;99.90
29891;DHT22;16759;49.540;8.642;2022-11-20T08:35:36;5.70;99.90
29891;DHT22;16759;49.540;8.642;2022-11-20T08:38:03;5.90;99.90
29891;DHT22;16759;49.540;8.642;2022-11-20T08:40:31;5.70;99.90
29891;DHT22;16759;49.540;8.642;2022-11-20T08:42:57;5.90;99.90
29891;DHT22;16759;49.540;8.642;2022-11-20T08:45:22;5.60;99.90
29891;DHT22;16759;49.540;8.642;2022-11-20T08:47:50;5.20;99.90
29891;DHT22;16759;49.540;8.642;2022-11-20T08:50:16;5.10;99.90
29891;DHT22;16759;49.540;8.642;2022-11-20T08:52:42;5.40;99.90
29891;DHT22;16759;49.540;8.642;2022-11-20T08:55:07;5.10;99.90
29891;DHT22;16759;49.540;8.642;2022-11-20T08:57:33;5.20;99.90
29891;DHT22;16759;49.540;8.642;2022-11-20T08:59:59;5.10;99.90
29891;DHT22;16759;49.540;8.642;2022-11-20T09:02:24;5.20;99.90
29891;DHT22;16759;49.540;8.642;2022-11-20T09:04:50;5.40;99.90
29891;DHT22;16759;49.540;8.642;2022-11-20T09:07:16;5.20;99.90
29891;DHT22;16759;49.540;8.642;2022-11-20T09:09:41;4.90;99.90
29891;DHT22;16759;49.540;8.642;2022-11-20T09:12:07;4.90;99.90
29891;DHT22;16759;49.540;8.642;2022-11-20T09:14:32;5.30;99.90
29891;DHT22;16759;49.540;8.642;2022-11-20T09:16:59;5.10;99.90
29891;DHT22;16759;49.540;8.642;2022-11-20T09:19:24;5.00;99.90
29891;DHT22;16759;49.540;8.642;2022-11-20T09:21:50;5.20;99.90
29891;DHT22;16759;49.540;8.642;2022-11-20T09:24:15;5.20;99.90
29891;DHT22;16759;49.540;8.642;2022-11-20T09:26:41;5.20;99.90
29891;DHT22;16759;49.540;8.642;2022-11-20T09:29:07;5.40;99.90
29891;DHT22;16759;49.540;8.642;2022-11-20T09:31:34;5.10;99.90
29891;DHT22;16759;49.540;8.642;2022-11-20T09:34:00;5.10;99.90
29891;DHT22;16759;49.540;8.642;2022-11-20T09:36:25;5.30;99.90
29891;DHT22;16759;49.540;8.642;2022-11-20T09:38:51;5.30;99.90
29891;DHT22;16759;49.540;8.642;2022-11-20T09:44:38;5.30;99.90
29891;DHT22;16759;49.540;8.642;2022-11-20T09:49:28;5.50;99.90
29891;DHT22;16759;49.540;8.642;2022-11-20T09:51:59;5.60;99.90
29891;DHT22;16759;49.540;8.642;2022-11-20T09:54:37;5.50;99.90
29891;DHT22;16759;49.540;8.642;2022-11-20T09:58:04;5.80;99.90
29891;DHT22;16759;49.540;8.642;2022-11-20T09:59:59;5.80;99.90
29891;DHT22;16759;49.540;8.642;2022-11-20T10:07:47;6.00;99.90
29891;DHT22;16759;49.540;8.642;2022-11-20T10:10:31;6.20;99.90
29891;DHT22;16759;49.540;8.642;2022-11-20T10:20:46;5.80;99.90
29891;DHT22;16759;49.540;8.642;2022-11-20T10:26:06;6.10;99.90
29891;DHT22;16759;49.540;8.642;2022-11-20T10:31:34;5.80;99.90
29891;DHT22;16759;49.540;8.642;2022-11-20T10:34:03;6.10;99.90
29891;DHT22;16759;49.540;8.642;2022-11-20T10:36:34;5.70;99.90
29891;DHT22;16759;49.540;8.642;2022-11-20T10:41:32;5.70;99.90
29891;DHT22;16759;49.540;8.642;2022-11-20T10:44:09;6.00;99.90
29891;DHT22;16759;49.540;8.642;2022-11-20T10:46:40;6.00;99.90
29891;DHT22;16759;49.540;8.642;2022-11-20T10:49:12;6.00;99.90
29891;DHT22;16759;49.540;8.642;2022-11-20T10:51:53;5.90;99.90
29891;DHT22;16759;49.540;8.642;2022-11-20T11:02:20;6.20;99.90
29891;DHT22;16759;49.540;8.642;2022-11-20T11:04:50;6.20;99.90
29891;DHT22;16759;49.540;8.642;2022-11-20T11:09:43;6.40;99.90
29891;DHT22;16759;49.540;8.642;2022-11-20T11:12:09;6.60;99.90
29891;DHT22;16759;49.540;8.642;2022-11-20T11:14:48;6.60;99.90
29891;DHT22;16759;49.540;8.642;2022-11-20T11:22:23;6.60;99.90
29891;DHT22;16759;49.540;8.642;2022-11-20T11:24:52;6.30;99.90
29891;DHT22;16759;49.540;8.642;2022-11-20T11:27:18;6.40;99.90
29891;DHT22;16759;49.540;8.642;2022-11-20T11:29:44;6.50;99.90
29891;DHT22;16759;49.540;8.642;2022-11-20T11:32:18;6.30;99.90
29891;DHT22;16759;49.540;8.642;2022-11-20T11:34:43;6.40;99.90
29891;DHT22;16759;49.540;8.642;2022-11-20T11:37:13;6.40;99.90
29891;DHT22;16759;49.540;8.642;2022-11-20T11:39:40;6.40;99.90
29891;DHT22;16759;49.540;8.642;2022-11-20T11:42:10;6.40;99.90
29891;DHT22;16759;49.540;8.642;2022-11-20T11:44:38;6.40;99.90
29891;DHT22;16759;49.540;8.642;2022-11-20T11:47:31;6.30;99.90
29891;DHT22;16759;49.540;8.642;2022-11-20T11:52:45;6.50;99.90
29891;DHT22;16759;49.540;8.642;2022-11-20T12:00:21;7.30;99.90
29891;DHT22;16759;49.540;8.642;2022-11-20T12:08:03;7.40;99.90
29891;DHT22;16759;49.540;8.642;2022-11-20T12:13:04;7.60;99.90
29891;DHT22;16759;49.540;8.642;2022-11-20T12:15:33;7.50;99.90
29891;DHT22;16759;49.540;8.642;2022-11-20T12:17:59;7.20;99.90
29891;DHT22;16759;49.540;8.642;2022-11-20T12:20:29;7.20;99.90
29891;DHT22;16759;49.540;8.642;2022-11-20T12:25:41;7.30;99.90
29891;DHT22;16759;49.540;8.642;2022-11-20T12:30:52;7.30;99.90
29891;DHT22;16759;49.540;8.642;2022-11-20T12:41:05;7.20;99.90
29891;DHT22;16759;49.540;8.642;2022-11-20T12:43:45;7.10;99.90
29891;DHT22;16759;49.540;8.642;2022-11-20T12:46:42;7.50;99.90
29891;DHT22;16759;49.540;8.642;2022-11-20T12:51:47;7.60;99.90
29891;DHT22;16759;49.540;8.642;2022-11-20T12:59:31;6.90;99.90
29891;DHT22;16759;49.540;8.642;2022-11-20T13:07:11;7.00;99.90
29891;DHT22;16759;49.540;8.642;2022-11-20T13:09:48;7.30;99.90
29891;DHT22;16759;49.540;8.642;2022-11-20T13:19:47;7.40;99.90
29891;DHT22;16759;49.540;8.642;2022-11-20T13:22:23;7.60;99.90
29891;DHT22;16759;49.540;8.642;2022-11-20T13:24:52;7.90;99.90
29891;DHT22;16759;49.540;8.642;2022-11-20T13:27:18;7.60;99.90
29891;DHT22;16759;49.540;8.642;2022-11-20T13:32:34;7.80;99.90
29891;DHT22;16759;49.540;8.642;2022-11-20T13:35:02;7.80;99.90
29891;DHT22;16759;49.540;8.642;2022-11-20T13:37:35;7.90;99.90
29891;DHT22;16759;49.540;8.642;2022-11-20T13:42:38;8.00;99.90
29891;DHT22;16759;49.540;8.642;2022-11-20T13:45:21;8.30;99.90
29891;DHT22;16759;49.540;8.642;2022-11-20T13:47:47;8.10;99.90
29891;DHT22;16759;49.540;8.642;2022-11-20T13:50:13;8.30;99.90
29891;DHT22;16759;49.540;8.642;2022-11-20T13:52:42;8.40;99.90
29891;DHT22;16759;49.540;8.642;2022-11-20T13:55:17;8.60;99.90
29891;DHT22;16759;49.540;8.642;2022-11-20T14:00:25;8.90;99.90
29891;DHT22;16759;49.540;8.642;2022-11-20T14:05:35;9.30;99.90
29891;DHT22;16759;49.540;8.642;2022-11-20T14:08:02;9.30;99.90
29891;DHT22;16759;49.540;8.642;2022-11-20T14:10:28;9.10;99.90
29891;DHT22;16759;49.540;8.642;2022-11-20T14:12:54;9.40;99.90
29891;DHT22;16759;49.540;8.642;2022-11-20T14:15:27;9.30;99.90
29891;DHT22;16759;49.540;8.642;2022-11-20T14:17:55;9.20;99.90
29891;DHT22;16759;49.540;8.642;2022-11-20T14:20:22;9.30;99.90
29891;DHT22;16759;49.540;8.642;2022-11-20T14:22:50;9.10;99.90
29891;DHT22;16759;49.540;8.642;2022-11-20T14:27:47;9.40;99.90
29891;DHT22;16759;49.540;8.642;2022-11-20T14:30:16;9.50;99.90
29891;DHT22;16759;49.540;8.642;2022-11-20T14:32:43;9.40;99.90
29891;DHT22;16759;49.540;8.642;2022-11-20T14:35:10;9.20;99.90
29891;DHT22;16759;49.540;8.642;2022-11-20T14:37:38;8.90;99.90
29891;DHT22;16759;49.540;8.642;2022-11-20T14:40:14;8.90;99.90
29891;DHT22;16759;49.540;8.642;2022-11-20T14:42:46;8.50;99.90
29891;DHT22;16759;49.540;8.642;2022-11-20T14:45:11;8.60;99.90
29891;DHT22;16759;49.540;8.642;2022-11-20T14:47:37;8.60;99.90
29891;DHT22;16759;49.540;8.642;2022-11-20T14:50:03;8.20;99.90
29891;DHT22;16759;49.540;8.642;2022-11-20T14:52:29;8.40;99.90
29891;DHT22;16759;49.540;8.642;2022-11-20T14:54:57;8.30;99.90
29891;DHT22;16759;49.540;8.642;2022-11-20T14:57:29;8.20;99.90
29891;DHT22;16759;49.540;8.642;2022-11-20T15:02:32;8.20;99.90
29891;DHT22;16759;49.540;8.642;2022-11-20T15:04:58;7.90;99.90
29891;DHT22;16759;49.540;8.642;2022-11-20T15:07:29;8.10;99.90
29891;DHT22;16759;49.540;8.642;2022-11-20T15:12:26;7.90;99.90
29891;DHT22;16759;49.540;8.642;2022-11-20T15:14:52;8.00;99.90
29891;DHT22;16759;49.540;8.642;2022-11-20T15:17:17;7.80;99.90
29891;DHT22;16759;49.540;8.642;2022-11-20T15:19:43;7.90;99.90
29891;DHT22;16759;49.540;8.642;2022-11-20T15:22:11;7.90;99.90
29891;DHT22;16759;49.540;8.642;2022-11-20T15:24:41;7.90;99.90
29891;DHT22;16759;49.540;8.642;2022-11-20T15:27:07;7.80;99.90
29891;DHT22;16759;49.540;8.642;2022-11-20T15:29:33;8.00;99.90
29891;DHT22;16759;49.540;8.642;2022-11-20T15:31:58;7.90;99.90
29891;DHT22;16759;49.540;8.642;2022-11-20T15:34:26;7.80;99.90
29891;DHT22;16759;49.540;8.642;2022-11-20T15:36:52;8.00;99.90
29891;DHT22;16759;49.540;8.642;2022-11-20T15:39:18;7.80;99.90
29891;DHT22;16759;49.540;8.642;2022-11-20T15:41:43;8.00;99.90
29891;DHT22;16759;49.540;8.642;2022-11-20T15:44:09;7.70;99.90
29891;DHT22;16759;49.540;8.642;2022-11-20T15:46:37;7.90;99.90
29891;DHT22;16759;49.540;8.642;2022-11-20T15:49:05;7.60;99.90
29891;DHT22;16759;49.540;8.642;2022-11-20T15:51:34;7.90;99.90
29891;DHT22;16759;49.540;8.642;2022-11-20T15:54:00;7.90;99.90
29891;DHT22;16759;49.540;8.642;2022-11-20T15:56:27;7.70;99.90
29891;DHT22;16759;49.540;8.642;2022-11-20T15:58:55;7.90;99.90
29891;DHT22;16759;49.540;8.642;2022-11-20T16:01:22;7.70;99.90
29891;DHT22;16759;49.540;8.642;2022-11-20T16:03:48;7.60;99.90
29891;DHT22;16759;49.540;8.642;2022-11-20T16:06:13;7.90;99.90
29891;DHT22;16759;49.540;8.642;2022-11-20T16:08:41;7.90;99.90
29891;DHT22;16759;49.540;8.642;2022-11-20T16:11:06;7.60;99.90
29891;DHT22;16759;49.540;8.642;2022-11-20T16:13:33;7.60;99.90
29891;DHT22;16759;49.540;8.642;2022-11-20T16:16:22;7.40;99.90
29891;DHT22;16759;49.540;8.642;2022-11-20T16:18:48;7.50;99.90
29891;DHT22;16759;49.540;8.642;2022-11-20T16:21:14;7.20;99.90
29891;DHT22;16759;49.540;8.642;2022-11-20T16:23:40;7.70;99.90
29891;DHT22;16759;49.540;8.642;2022-11-20T16:26:09;7.60;99.90
29891;DHT22;16759;49.540;8.642;2022-11-20T16:28:34;7.60;99.90
29891;DHT22;16759;49.540;8.642;2022-11-20T16:31:07;7.60;99.90
29891;DHT22;16759;49.540;8.642;2022-11-20T16:33:32;7.60;99.90
29891;DHT22;16759;49.540;8.642;2022-11-20T16:35:58;7.60;99.90
29891;DHT22;16759;49.540;8.642;2022-11-20T16:38:31;7.60;99.90
29891;DHT22;16759;49.540;8.642;2022-11-20T16:40:59;7.60;99.90
29891;DHT22;16759;49.540;8.642;2022-11-20T16:43:28;7.60;99.90
29891;DHT22;16759;49.540;8.642;2022-11-20T16:45:53;7.60;99.90
29891;DHT22;16759;49.540;8.642;2022-11-20T16:48:21;7.60;99.90
29891;DHT22;16759;49.540;8.642;2022-11-20T16:50:47;7.70;99.90
29891;DHT22;16759;49.540;8.642;2022-11-20T16:53:16;7.70;99.90
29891;DHT22;16759;49.540;8.642;2022-11-20T16:55:42;7.60;99.90
29891;DHT22;16759;49.540;8.642;2022-11-20T16:58:07;7.90;99.90
29891;DHT22;16759;49.540;8.642;2022-11-20T17:00:36;7.60;99.90
29891;DHT22;16759;49.540;8.642;2022-11-20T17:03:02;7.80;99.90
29891;DHT22;16759;49.540;8.642;2022-11-20T17:05:31;7.90;99.90
29891;DHT22;16759;49.540;8.642;2022-11-20T17:07:57;7.70;99.90
29891;DHT22;16759;49.540;8.642;2022-11-20T17:10:22;7.70;99.90
29891;DHT22;16759;49.540;8.642;2022-11-20T17:12:48;7.70;99.90
29891;DHT22;16759;49.540;8.642;2022-11-20T17:15:13;7.60;99.90
29891;DHT22;16759;49.540;8.642;2022-11-20T17:17:39;7.90;99.90
29891;DHT22;16759;49.540;8.642;2022-11-20T17:20:04;7.60;99.90
29891;DHT22;16759;49.540;8.642;2022-11-20T17:22:30;7.70;99.90
29891;DHT22;16759;49.540;8.642;2022-11-20T17:24:56;7.60;99.90
29891;DHT22;16759;49.540;8.642;2022-11-20T17:27:21;7.80;99.90
29891;DHT22;16759;49.540;8.642;2022-11-20T17:29:47;7.70;99.90
29891;DHT22;16759;49.540;8.642;2022-11-20T17:32:12;7.60;99.90
29891;DHT22;16759;49.540;8.642;2022-11-20T17:34:38;7.70;99.90
29891;DHT22;16759;49.540;8.642;2022-11-20T17:37:03;7.70;99.90
29891;DHT22;16759;49.540;8.642;2022-11-20T17:39:29;7.60;99.90
29891;DHT22;16759;49.540;8.642;2022-11-20T17:41:54;7.50;99.90